createdAt,value
2018-07-24T00:00:22.473Z,17.8
2018-07-24T00:05:22.815Z,17.7
2018-07-24T00:10:23.096Z,17.7
2018-07-24T00:15:22.774Z,17.6
2018-07-24T00:20:22.447Z,17.6
2018-07-24T00:25:23.175Z,17.4
2018-07-24T00:30:22.783Z,17.4
2018-07-24T00:35:22.971Z,17.3
2018-07-24T00:40:22.616Z,17.3
2018-07-24T00:45:23.235Z,17.3
2018-07-24T00:50:22.781Z,17.3
2018-07-24T00:55:23.408Z,17.2
2018-07-24T01:00:22.710Z,17.2
2018-07-24T01:05:23.357Z,17.1
2018-07-24T01:10:23.092Z,17.1
2018-07-24T01:15:22.657Z,16.9
2018-07-24T01:20:23.319Z,16.9
2018-07-24T01:25:23.172Z,16.8
2018-07-24T01:30:22.789Z,16.8
2018-07-24T01:35:22.718Z,16.7
2018-07-24T01:40:23.363Z,16.7
2018-07-24T01:45:23.070Z,16.7
2018-07-24T01:50:22.727Z,16.7
2018-07-24T01:55:23.329Z,16.6
2018-07-24T02:00:22.987Z,16.6
2018-07-24T02:05:23.271Z,16.6
2018-07-24T02:10:23.419Z,16.6
2018-07-24T02:15:23.078Z,16.4
2018-07-24T02:20:22.989Z,16.4
2018-07-24T02:25:22.599Z,16.4
2018-07-24T02:30:23.290Z,16.4
2018-07-24T02:35:23.002Z,16.3
2018-07-24T02:40:22.612Z,16.3
2018-07-24T02:45:23.251Z,16.2
2018-07-24T02:50:23.006Z,16.2
2018-07-24T02:55:22.627Z,16.2
2018-07-24T03:00:23.356Z,16.2
2018-07-24T03:05:23.103Z,16.1
2018-07-24T03:10:23.489Z,16.1
2018-07-24T03:15:23.192Z,15.9
2018-07-24T03:20:22.847Z,15.9
2018-07-24T03:25:23.555Z,15.8
2018-07-24T03:30:23.188Z,15.8
2018-07-24T03:35:22.909Z,15.8
2018-07-24T03:40:23.606Z,15.8
2018-07-24T03:45:23.267Z,15.7
2018-07-24T03:50:23.153Z,15.7
2018-07-24T03:55:22.839Z,15.6
2018-07-24T04:00:23.507Z,15.6
2018-07-24T04:05:23.289Z,15.6
2018-07-24T04:10:22.909Z,15.6
2018-07-24T04:15:22.899Z,15.6
2018-07-24T04:20:23.646Z,15.6
2018-07-24T04:25:23.212Z,15.6
2018-07-24T04:30:22.972Z,15.6
2018-07-24T04:35:23.211Z,15.6
2018-07-24T04:40:23.556Z,15.6
2018-07-24T04:45:23.279Z,15.6
2018-07-24T04:50:22.876Z,15.6
2018-07-24T04:55:23.598Z,15.7
2018-07-24T05:00:23.292Z,15.7
2018-07-24T05:05:22.765Z,15.8
2018-07-24T05:10:23.460Z,15.8
2018-07-24T05:15:23.175Z,16
2018-07-24T05:20:22.750Z,16
2018-07-24T05:25:23.468Z,16.2
2018-07-24T05:30:23.161Z,16.2
2018-07-24T05:35:22.885Z,16.4
2018-07-24T05:40:23.668Z,16.4
2018-07-24T05:45:23.275Z,16.7
2018-07-24T05:50:22.930Z,16.7
2018-07-24T05:55:23.591Z,17.1
2018-07-24T06:00:23.256Z,17.1
2018-07-24T06:05:22.857Z,17.4
2018-07-24T06:10:23.687Z,17.4
2018-07-24T06:15:23.430Z,18
2018-07-24T06:20:23.066Z,18
2018-07-24T06:25:23.726Z,18.8
2018-07-24T06:30:23.719Z,18.8
2018-07-24T06:35:23.185Z,19.6
2018-07-24T06:40:22.933Z,19.6
2018-07-24T06:45:23.798Z,20.7
2018-07-24T06:50:23.495Z,20.7
2018-07-24T06:55:23.254Z,21.7
2018-07-24T07:00:22.957Z,21.7
2018-07-24T07:05:23.677Z,22.8
2018-07-24T07:10:23.825Z,22.8
2018-07-24T07:15:23.235Z,23.7
2018-07-24T07:20:22.937Z,23.7
2018-07-24T07:25:23.613Z,24.6
2018-07-24T07:30:23.026Z,24.6
2018-07-24T07:35:23.805Z,25.8
2018-07-24T07:40:23.498Z,25.8
2018-07-24T07:45:23.260Z,26.3
2018-07-24T07:50:23.013Z,26.3
2018-07-24T07:55:23.643Z,26.6
2018-07-24T08:00:23.325Z,26.6
2018-07-24T08:05:23.050Z,27.2
2018-07-24T08:10:23.003Z,27.2
2018-07-24T08:15:23.687Z,27.3
2018-07-24T08:20:23.356Z,27.3
2018-07-24T08:25:22.961Z,27.8
2018-07-24T08:30:23.699Z,27.8
2018-07-24T08:35:23.362Z,28.1
2018-07-24T08:40:23.009Z,28.1
2018-07-24T08:45:23.714Z,28.7
2018-07-24T08:50:23.396Z,28.7
2018-07-24T08:55:23.328Z,29.1
2018-07-24T09:00:23.233Z,29.1
2018-07-24T09:05:23.947Z,29.1
2018-07-24T09:10:23.256Z,29.1
2018-07-24T09:15:23.435Z,29.2
2018-07-24T09:20:23.509Z,29.2
2018-07-24T09:25:23.207Z,29.5
2018-07-24T09:30:23.151Z,29.5
2018-07-24T09:35:23.876Z,29.5
2018-07-24T09:40:23.665Z,29.5
2018-07-24T09:45:23.294Z,29.4
2018-07-24T09:50:23.130Z,29.4
2018-07-24T09:55:23.181Z,30.1
2018-07-24T10:00:23.553Z,30.1
2018-07-24T10:05:23.241Z,30.6
2018-07-24T10:10:23.593Z,30.6
2018-07-24T10:15:23.361Z,30.8
2018-07-24T10:20:23.924Z,30.8
2018-07-24T10:25:23.629Z,30.2
2018-07-24T10:30:23.311Z,30.2
2018-07-24T10:35:24.070Z,30.2
2018-07-24T10:40:23.808Z,30.2
2018-07-24T10:45:23.494Z,30.7
2018-07-24T10:50:23.166Z,30.7
2018-07-24T10:55:23.434Z,30.7
2018-07-24T11:00:23.731Z,30.7
2018-07-24T11:05:23.537Z,30.7
2018-07-24T11:10:23.243Z,30.7
2018-07-24T11:15:23.476Z,31.2
2018-07-24T11:20:23.167Z,31.2
2018-07-24T11:25:23.831Z,31.5
2018-07-24T11:30:23.502Z,31.5
2018-07-24T11:35:23.298Z,31.3
2018-07-24T11:40:24.056Z,31.3
2018-07-24T11:45:23.787Z,32
2018-07-24T11:50:23.646Z,32
2018-07-24T11:55:23.264Z,32.4
2018-07-24T12:00:23.971Z,32.4
2018-07-24T12:05:23.698Z,32.3
2018-07-24T12:10:23.796Z,32.3
2018-07-24T12:15:23.458Z,32.2
2018-07-24T12:20:24.150Z,32.2
2018-07-24T12:25:23.825Z,32.7
2018-07-24T12:30:23.513Z,32.7
2018-07-24T12:35:24.174Z,32.2
2018-07-24T12:40:24.104Z,32.2
2018-07-24T12:45:23.741Z,32.4
2018-07-24T12:50:23.544Z,32.4
2018-07-24T12:55:24.162Z,32.4
2018-07-24T13:00:23.838Z,32.4
2018-07-24T13:05:23.617Z,32.3
2018-07-24T13:10:23.778Z,32.3
2018-07-24T13:15:23.889Z,32.8
2018-07-24T13:20:23.743Z,32.8
2018-07-24T13:25:23.476Z,33.2
2018-07-24T13:30:23.811Z,33.2
2018-07-24T13:35:23.537Z,32.7
2018-07-24T13:40:23.308Z,32.7
2018-07-24T13:45:23.859Z,32.8
2018-07-24T13:50:23.682Z,32.8
2018-07-24T13:55:23.354Z,32.9
2018-07-24T14:00:24.051Z,32.9
2018-07-24T14:05:24.082Z,33.1
2018-07-24T14:10:23.803Z,33.1
2018-07-24T14:15:23.866Z,32.4
2018-07-24T14:20:23.591Z,32.4
2018-07-24T14:25:24.210Z,32.4
2018-07-24T14:30:23.857Z,32.4
2018-07-24T14:35:23.641Z,32.7
2018-07-24T14:40:24.411Z,32.7
2018-07-24T14:45:24.253Z,32.4
2018-07-24T14:50:24.010Z,32.4
2018-07-24T14:55:23.947Z,32.9
2018-07-24T15:00:23.629Z,32.9
2018-07-24T15:05:24.358Z,33.3
2018-07-24T15:10:24.183Z,33.3
2018-07-24T15:15:23.985Z,32.9
2018-07-24T15:20:23.735Z,32.9
2018-07-24T15:25:23.710Z,32.4
2018-07-24T15:30:24.412Z,32.4
2018-07-24T15:35:24.457Z,32.4
2018-07-24T15:40:24.098Z,32.4
2018-07-24T15:45:23.876Z,32.5
2018-07-24T15:50:23.628Z,32.5
2018-07-24T15:55:24.407Z,32.6
2018-07-24T16:00:24.197Z,32.6
2018-07-24T16:05:23.951Z,32.6
2018-07-24T16:10:24.540Z,32.6
2018-07-24T16:15:24.416Z,32.6
2018-07-24T16:20:24.136Z,32.6
2018-07-24T16:25:23.957Z,32.6
2018-07-24T16:30:23.613Z,32.6
2018-07-24T16:35:24.313Z,32.4
2018-07-24T16:40:24.042Z,32.4
2018-07-24T16:45:23.696Z,32.3
2018-07-24T16:50:24.506Z,32.3
2018-07-24T16:55:24.190Z,32.2
2018-07-24T17:00:23.918Z,32.2
2018-07-24T17:05:23.676Z,31.9
2018-07-24T17:10:24.580Z,31.9
2018-07-24T17:15:24.006Z,31.8
2018-07-24T17:20:23.724Z,31.8
2018-07-24T17:25:24.515Z,31.5
2018-07-24T17:30:24.309Z,31.5
2018-07-24T17:35:24.282Z,31.3
2018-07-24T17:40:23.916Z,31.3
2018-07-24T17:45:23.799Z,30.9
2018-07-24T17:50:24.499Z,30.9
2018-07-24T17:55:24.392Z,30.7
2018-07-24T18:00:24.098Z,30.7
2018-07-24T18:05:23.908Z,30.3
2018-07-24T18:10:23.631Z,30.3
2018-07-24T18:15:23.915Z,30.1
2018-07-24T18:20:24.561Z,30.1
2018-07-24T18:25:24.321Z,29.7
2018-07-24T18:30:23.948Z,29.7
2018-07-24T18:35:23.939Z,29.3
2018-07-24T18:40:24.758Z,29.3
2018-07-24T18:45:24.114Z,28.9
2018-07-24T18:50:23.903Z,28.9
2018-07-24T18:55:24.625Z,28.5
2018-07-24T19:00:24.315Z,28.5
2018-07-24T19:05:24.806Z,28.1
2018-07-24T19:10:24.670Z,28.1
2018-07-24T19:15:24.163Z,27.7
2018-07-24T19:20:23.990Z,27.7
2018-07-24T19:25:23.767Z,27.3
2018-07-24T19:30:24.381Z,27.3
2018-07-24T19:35:24.134Z,26.9
2018-07-24T19:40:23.792Z,26.9
2018-07-24T19:45:24.488Z,26.6
2018-07-24T19:50:24.160Z,26.6
2018-07-24T19:55:23.758Z,26.2
2018-07-24T20:00:24.479Z,26.2
2018-07-24T20:05:24.292Z,25.9
2018-07-24T20:10:23.977Z,25.9
2018-07-24T20:15:23.806Z,25.6
2018-07-24T20:20:24.592Z,25.6
2018-07-24T20:25:24.345Z,25.2
2018-07-24T20:30:24.037Z,25.2
2018-07-24T20:35:24.711Z,24.9
2018-07-24T20:40:24.552Z,24.9
2018-07-24T20:45:24.210Z,24.6
2018-07-24T20:50:23.844Z,24.6
2018-07-24T20:55:24.564Z,24.4
2018-07-24T21:00:24.357Z,24.4
2018-07-24T21:05:24.105Z,24.2
2018-07-24T21:10:24.792Z,24.2
2018-07-24T21:15:23.989Z,24.1
2018-07-24T21:20:24.722Z,24.1
2018-07-24T21:25:24.444Z,23.9
2018-07-24T21:30:24.104Z,23.9
2018-07-24T21:35:23.939Z,23.7
2018-07-24T21:40:24.702Z,23.7
2018-07-24T21:45:24.409Z,23.6
2018-07-24T21:50:24.135Z,23.6
2018-07-24T21:55:24.392Z,23.4
2018-07-24T22:00:24.445Z,23.4
2018-07-24T22:05:25.017Z,23.2
2018-07-24T22:10:24.912Z,23.2
2018-07-24T22:15:24.845Z,23.1
2018-07-24T22:20:24.621Z,23.1
2018-07-24T22:25:24.396Z,22.9
2018-07-24T22:30:24.110Z,22.9
2018-07-24T22:35:25.038Z,22.8
2018-07-24T22:40:24.795Z,22.8
2018-07-24T22:45:24.577Z,22.6
2018-07-24T22:50:24.262Z,22.6
2018-07-24T22:55:24.059Z,22.3
2018-07-24T23:00:24.695Z,22.3
2018-07-24T23:05:24.663Z,22.1
2018-07-24T23:10:24.342Z,22.1
2018-07-24T23:15:24.709Z,21.8
2018-07-24T23:20:24.527Z,21.8
2018-07-24T23:25:24.369Z,21.7
2018-07-24T23:30:25.038Z,21.7
2018-07-24T23:35:24.855Z,21.4
2018-07-24T23:40:24.506Z,21.4
2018-07-24T23:45:24.153Z,21.2
2018-07-24T23:50:24.831Z,21.2
2018-07-24T23:55:24.557Z,21.1
